createdAt,value
2019-03-09T00:01:39.793Z,100503.28
2019-03-09T00:04:07.089Z,100495.36
2019-03-09T00:06:34.329Z,100501.62
2019-03-09T00:09:01.569Z,100492.95
2019-03-09T00:11:30.415Z,100486.86
2019-03-09T00:13:57.656Z,100474.97
2019-03-09T00:16:24.920Z,100461.77
2019-03-09T00:18:52.253Z,100457.16
2019-03-09T00:21:19.539Z,100459.09
2019-03-09T00:24:06.367Z,100432.95
2019-03-09T00:26:55.944Z,100423.44
2019-03-09T00:29:42.716Z,100408.69
2019-03-09T00:32:13.231Z,100378.33
2019-03-09T00:34:41.296Z,100368.45
2019-03-09T00:37:08.583Z,100364.18
2019-03-09T00:39:35.824Z,100351.19
2019-03-09T00:42:03.486Z,100350.34
2019-03-09T00:44:30.775Z,100346.80
2019-03-09T00:46:58.053Z,100341.24
2019-03-09T00:49:25.519Z,100340.78
2019-03-09T00:51:52.806Z,100335.30
2019-03-09T00:54:20.106Z,100339.25
2019-03-09T00:56:47.372Z,100341.94
2019-03-09T00:59:14.684Z,100339.84
2019-03-09T01:01:41.954Z,100343.45
2019-03-09T01:04:09.242Z,100329.03
2019-03-09T01:06:36.494Z,100318.92
2019-03-09T01:09:06.711Z,100323.38
2019-03-09T01:11:34.000Z,100312.80
2019-03-09T01:14:01.254Z,100309.50
2019-03-09T01:16:28.699Z,100300.12
2019-03-09T01:18:55.997Z,100294.69
2019-03-09T01:21:23.238Z,100295.84
2019-03-09T01:23:50.478Z,100288.53
2019-03-09T01:26:17.860Z,100287.98
2019-03-09T01:28:45.096Z,100283.11
2019-03-09T01:31:12.326Z,100273.61
2019-03-09T01:33:39.696Z,100265.83
2019-03-09T01:36:06.945Z,100266.88
2019-03-09T01:38:34.187Z,100247.08
2019-03-09T01:41:01.473Z,100243.76
2019-03-09T01:43:28.717Z,100244.29
2019-03-09T01:45:55.951Z,100231.69
2019-03-09T01:48:23.240Z,100238.86
2019-03-09T01:50:50.460Z,100225.05
2019-03-09T01:53:20.116Z,100224.98
2019-03-09T01:55:47.482Z,100223.99
2019-03-09T01:58:15.080Z,100217.45
2019-03-09T02:00:42.497Z,100211.18
2019-03-09T02:03:09.753Z,100209.84
2019-03-09T02:05:39.169Z,100209.87
2019-03-09T02:08:06.442Z,100201.10
2019-03-09T02:10:33.814Z,100193.89
2019-03-09T02:13:01.068Z,100192.70
2019-03-09T02:15:28.338Z,100192.30
2019-03-09T02:18:00.139Z,100193.09
2019-03-09T02:20:27.412Z,100189.08
2019-03-09T02:22:55.053Z,100188.12
2019-03-09T02:25:22.318Z,100190.05
2019-03-09T02:27:49.571Z,100189.71
2019-03-09T02:30:18.073Z,100189.49
2019-03-09T02:32:45.495Z,100187.38
2019-03-09T02:35:12.883Z,100182.38
2019-03-09T02:37:41.118Z,100195.28
2019-03-09T02:40:27.013Z,100186.70
2019-03-09T02:42:54.260Z,100183.22
2019-03-09T02:45:22.256Z,100194.69
2019-03-09T02:47:49.548Z,100201.56
2019-03-09T02:50:16.921Z,100187.79
2019-03-09T02:52:44.206Z,100208.16
2019-03-09T02:55:11.876Z,100201.39
2019-03-09T02:57:39.237Z,100212.13
2019-03-09T03:00:08.280Z,100210.09
2019-03-09T03:02:38.167Z,100217.58
2019-03-09T03:05:05.806Z,100205.20
2019-03-09T03:07:33.094Z,100209.23
2019-03-09T03:10:00.442Z,100198.44
2019-03-09T03:12:27.766Z,100202.16
2019-03-09T03:14:54.992Z,100214.39
2019-03-09T03:17:22.234Z,100221.73
2019-03-09T03:19:49.500Z,100201.27
2019-03-09T03:22:16.777Z,100228.71
2019-03-09T03:24:44.088Z,100234.32
2019-03-09T03:27:11.342Z,100217.95
2019-03-09T03:29:38.624Z,100239.56
2019-03-09T03:32:06.011Z,100252.22
2019-03-09T03:34:33.297Z,100251.85
2019-03-09T03:37:00.663Z,100246.73
2019-03-09T03:39:28.901Z,100250.33
2019-03-09T03:41:56.157Z,100241.48
2019-03-09T03:44:23.451Z,100252.70
2019-03-09T03:46:50.710Z,100259.32
2019-03-09T03:49:17.953Z,100265.30
2019-03-09T03:51:45.331Z,100263.34
2019-03-09T03:54:12.617Z,100255.75
2019-03-09T03:56:39.988Z,100265.20
2019-03-09T03:59:07.358Z,100248.38
2019-03-09T04:01:34.670Z,100269.53
2019-03-09T04:04:01.946Z,100266.48
2019-03-09T04:06:29.317Z,100280.54
2019-03-09T04:08:56.750Z,100275.20
2019-03-09T04:11:24.069Z,100278.65
2019-03-09T04:13:51.315Z,100284.80
2019-03-09T04:16:18.572Z,100290.32
2019-03-09T04:18:45.862Z,100289.41
2019-03-09T04:21:13.193Z,100287.98
2019-03-09T04:23:40.420Z,100289.62
2019-03-09T04:26:07.688Z,100276.84
2019-03-09T04:28:35.001Z,100280.38
2019-03-09T04:31:02.246Z,100294.50
2019-03-09T04:33:29.700Z,100311.91
2019-03-09T04:36:06.733Z,100313.75
2019-03-09T04:38:34.325Z,100310.25
2019-03-09T04:41:01.630Z,100314.06
2019-03-09T04:43:28.953Z,100311.77
2019-03-09T04:45:56.262Z,100338.14
2019-03-09T04:48:23.495Z,100330.87
2019-03-09T04:50:50.875Z,100342.59
2019-03-09T04:53:18.266Z,100332.05
2019-03-09T04:55:46.195Z,100325.49
2019-03-09T04:58:13.446Z,100329.48
2019-03-09T05:00:40.728Z,100329.25
2019-03-09T05:03:08.015Z,100327.59
2019-03-09T05:05:35.299Z,100327.59
2019-03-09T05:08:56.668Z,100331.94
2019-03-09T05:11:28.027Z,100340.48
2019-03-09T05:14:02.670Z,100340.48
2019-03-09T05:16:29.938Z,100352.01
2019-03-09T05:18:57.176Z,100358.53
2019-03-09T05:21:24.477Z,100355.95
2019-03-09T05:23:51.730Z,100370.53
2019-03-09T05:26:18.952Z,100373.03
2019-03-09T05:28:46.251Z,100371.73
2019-03-09T05:31:13.525Z,100373.93
2019-03-09T05:33:40.797Z,100379.70
2019-03-09T05:36:08.146Z,100371.56
2019-03-09T05:38:35.387Z,100372.61
2019-03-09T05:41:02.628Z,100372.89
2019-03-09T05:43:29.916Z,100378.35
2019-03-09T05:45:57.336Z,100375.16
2019-03-09T05:48:24.598Z,100375.91
2019-03-09T05:50:51.941Z,100386.11
2019-03-09T05:53:20.866Z,100386.59
2019-03-09T05:55:48.224Z,100386.38
2019-03-09T05:58:15.527Z,100397.41
2019-03-09T06:00:43.198Z,100396.13
2019-03-09T06:03:10.439Z,100403.80
2019-03-09T06:05:45.767Z,100408.67
2019-03-09T06:08:13.010Z,100408.19
2019-03-09T06:10:40.307Z,100408.09
2019-03-09T06:13:07.541Z,100406.05
2019-03-09T06:15:34.875Z,100407.27
2019-03-09T06:18:02.135Z,100423.16
2019-03-09T06:20:29.406Z,100403.63
2019-03-09T06:22:56.682Z,100404.44
2019-03-09T06:25:23.948Z,100431.08
2019-03-09T06:27:51.226Z,100424.20
2019-03-09T06:30:18.493Z,100419.93
2019-03-09T06:33:23.280Z,100424.57
2019-03-09T06:35:56.983Z,100424.47
2019-03-09T06:38:49.785Z,100414.62
2019-03-09T06:41:21.205Z,100438.27
2019-03-09T06:43:48.452Z,100456.64
2019-03-09T06:46:15.721Z,100460.63
2019-03-09T06:48:43.006Z,100448.23
2019-03-09T06:51:10.250Z,100454.68
2019-03-09T06:53:37.555Z,100448.14
2019-03-09T06:56:04.840Z,100453.14
2019-03-09T06:58:35.561Z,100468.75
2019-03-09T07:01:21.517Z,100449.84
2019-03-09T07:03:48.954Z,100456.43
2019-03-09T07:06:16.292Z,100455.90
2019-03-09T07:08:43.947Z,100452.42
2019-03-09T07:11:12.418Z,100454.55
2019-03-09T07:13:40.040Z,100454.00
2019-03-09T07:16:07.385Z,100438.89
2019-03-09T07:18:38.101Z,100446.92
2019-03-09T07:21:05.413Z,100447.92
2019-03-09T07:23:32.712Z,100470.55
2019-03-09T07:26:01.105Z,100477.47
2019-03-09T07:28:28.382Z,100471.81
2019-03-09T07:30:57.208Z,100490.41
2019-03-09T07:33:24.444Z,100491.58
2019-03-09T07:35:51.735Z,100494.65
2019-03-09T07:38:19.047Z,100492.16
2019-03-09T07:40:46.281Z,100492.25
2019-03-09T07:43:15.819Z,100500.95
2019-03-09T07:45:43.093Z,100505.55
2019-03-09T07:48:10.355Z,100496.41
2019-03-09T07:50:37.757Z,100518.79
2019-03-09T07:53:04.995Z,100516.34
2019-03-09T07:55:32.290Z,100522.36
2019-03-09T07:58:04.142Z,100510.02
2019-03-09T08:00:31.489Z,100520.94
2019-03-09T08:02:59.278Z,100517.56
2019-03-09T08:05:26.538Z,100518.19
2019-03-09T08:07:53.807Z,100516.84
2019-03-09T08:10:21.294Z,100494.55
2019-03-09T08:12:48.560Z,100494.55
2019-03-09T08:15:16.578Z,100520.95
2019-03-09T08:17:43.920Z,100519.47
2019-03-09T08:20:11.392Z,100529.11
2019-03-09T08:22:38.666Z,100533.02
2019-03-09T08:25:06.975Z,100531.02
2019-03-09T08:27:34.383Z,100529.08
2019-03-09T08:30:02.565Z,100540.45
2019-03-09T08:32:30.093Z,100548.41
2019-03-09T08:34:57.415Z,100550.00
2019-03-09T08:37:26.390Z,100555.87
2019-03-09T08:39:53.706Z,100561.27
2019-03-09T08:42:20.961Z,100548.26
2019-03-09T08:44:48.269Z,100549.89
2019-03-09T08:47:15.784Z,100550.50
2019-03-09T08:49:43.154Z,100546.59
2019-03-09T08:52:10.463Z,100546.59
2019-03-09T08:54:37.736Z,100567.41
2019-03-09T08:57:05.090Z,100559.55
2019-03-09T08:59:32.361Z,100562.07
2019-03-09T09:01:59.829Z,100552.88
2019-03-09T09:04:27.177Z,100548.91
2019-03-09T09:06:54.811Z,100562.74
2019-03-09T09:09:22.122Z,100565.00
2019-03-09T09:11:49.384Z,100565.00
2019-03-09T09:14:16.696Z,100560.81
2019-03-09T09:16:43.994Z,100574.83
2019-03-09T09:19:11.276Z,100581.23
2019-03-09T09:21:38.534Z,100573.92
2019-03-09T09:24:05.844Z,100579.77
2019-03-09T09:26:33.101Z,100570.78
2019-03-09T09:29:00.469Z,100573.66
2019-03-09T09:31:27.821Z,100571.34
2019-03-09T09:33:55.075Z,100575.70
2019-03-09T09:36:22.380Z,100589.59
2019-03-09T09:38:49.714Z,100584.99
2019-03-09T09:41:17.001Z,100571.77
2019-03-09T09:43:44.454Z,100580.92
2019-03-09T09:46:11.845Z,100587.34
2019-03-09T09:48:39.301Z,100588.05
2019-03-09T09:51:06.566Z,100588.05
2019-03-09T09:53:33.993Z,100597.79
2019-03-09T09:56:01.294Z,100580.14
2019-03-09T09:58:28.599Z,100597.64
2019-03-09T10:00:55.848Z,100609.92
2019-03-09T10:03:23.123Z,100607.45
2019-03-09T10:05:50.426Z,100580.47
2019-03-09T10:08:17.735Z,100593.23
2019-03-09T10:10:45.023Z,100586.19
2019-03-09T10:13:12.352Z,100589.44
2019-03-09T10:15:39.683Z,100583.98
2019-03-09T10:18:06.990Z,100591.89
2019-03-09T10:20:34.327Z,100597.32
2019-03-09T10:23:04.663Z,100597.32
2019-03-09T10:25:31.757Z,100590.48
2019-03-09T10:27:59.279Z,100586.41
2019-03-09T10:30:26.608Z,100589.91
2019-03-09T10:32:53.869Z,100596.02
2019-03-09T10:35:21.189Z,100596.02
2019-03-09T10:37:48.710Z,100587.16
2019-03-09T10:40:16.485Z,100604.36
2019-03-09T10:42:43.893Z,100602.55
2019-03-09T10:45:11.283Z,100599.06
2019-03-09T10:47:38.536Z,100594.36
2019-03-09T10:50:08.178Z,100607.30
2019-03-09T10:52:35.449Z,100600.28
2019-03-09T10:55:03.437Z,100595.76
2019-03-09T10:57:30.760Z,100588.22
2019-03-09T10:59:58.038Z,100604.16
2019-03-09T11:02:25.330Z,100599.05
2019-03-09T11:04:52.723Z,100599.05
2019-03-09T11:07:20.076Z,100595.50
2019-03-09T11:09:47.350Z,100595.50
2019-03-09T11:12:14.727Z,100596.97
2019-03-09T11:14:42.111Z,100599.73
2019-03-09T11:17:09.406Z,100593.47
2019-03-09T11:19:36.726Z,100580.59
2019-03-09T11:22:04.027Z,100569.48
2019-03-09T11:24:31.323Z,100559.33
2019-03-09T11:26:58.635Z,100568.05
2019-03-09T11:29:28.188Z,100555.39
2019-03-09T11:31:55.125Z,100557.30
2019-03-09T11:34:22.375Z,100556.55
2019-03-09T11:36:49.748Z,100544.12
2019-03-09T11:39:17.016Z,100540.55
2019-03-09T11:41:44.390Z,100528.79
2019-03-09T11:44:11.696Z,100520.89
2019-03-09T11:46:41.368Z,100521.48
2019-03-09T11:49:08.603Z,100522.13
2019-03-09T11:51:35.947Z,100520.77
2019-03-09T11:54:03.220Z,100508.61
2019-03-09T11:56:30.520Z,100503.59
2019-03-09T11:58:57.809Z,100492.20
2019-03-09T12:01:25.069Z,100502.97
2019-03-09T12:03:52.382Z,100487.27
2019-03-09T12:06:19.696Z,100478.44
2019-03-09T12:08:46.952Z,100474.86
2019-03-09T12:11:14.255Z,100462.70
2019-03-09T12:13:41.536Z,100467.10
2019-03-09T12:16:08.870Z,100439.48
2019-03-09T12:18:36.181Z,100435.84
2019-03-09T12:21:03.433Z,100436.78
2019-03-09T12:23:30.708Z,100424.94
2019-03-09T12:25:58.015Z,100401.72
2019-03-09T12:28:25.285Z,100398.16
2019-03-09T12:30:52.756Z,100394.77
2019-03-09T12:33:20.093Z,100370.64
2019-03-09T12:35:47.391Z,100374.96
2019-03-09T12:38:14.747Z,100364.25
2019-03-09T12:40:42.147Z,100360.45
2019-03-09T12:43:09.535Z,100360.32
2019-03-09T12:45:37.019Z,100327.50
2019-03-09T12:48:04.314Z,100327.50
2019-03-09T12:50:31.658Z,100326.42
2019-03-09T12:52:58.952Z,100321.61
2019-03-09T12:55:26.210Z,100330.58
2019-03-09T12:57:53.531Z,100311.85
2019-03-09T13:00:20.817Z,100309.10
2019-03-09T13:02:48.340Z,100293.55
2019-03-09T13:05:16.007Z,100293.55
2019-03-09T13:07:43.316Z,100277.98
2019-03-09T13:10:11.197Z,100286.88
2019-03-09T13:12:38.473Z,100276.29
2019-03-09T13:15:06.351Z,100269.03
2019-03-09T13:17:36.194Z,100262.51
2019-03-09T13:20:03.846Z,100262.51
2019-03-09T13:22:31.152Z,100261.89
2019-03-09T13:24:58.839Z,100246.16
2019-03-09T13:27:26.467Z,100251.94
2019-03-09T13:29:54.022Z,100251.94
2019-03-09T13:32:21.310Z,100245.30
2019-03-09T13:34:48.809Z,100247.63
2019-03-09T13:37:16.090Z,100237.30
2019-03-09T13:39:43.382Z,100237.30
2019-03-09T13:42:10.663Z,100235.90
2019-03-09T13:44:37.943Z,100246.47
2019-03-09T13:47:05.179Z,100246.47
2019-03-09T13:49:32.441Z,100255.85
2019-03-09T13:51:59.710Z,100268.77
2019-03-09T13:54:26.991Z,100260.69
2019-03-09T13:56:54.245Z,100237.34
2019-03-09T13:59:21.496Z,100218.03
2019-03-09T14:01:48.780Z,100218.03
2019-03-09T14:04:16.340Z,100192.69
2019-03-09T14:06:43.576Z,100190.43
2019-03-09T14:09:10.926Z,100178.02
2019-03-09T14:11:38.659Z,100169.28
2019-03-09T14:14:05.945Z,100155.66
2019-03-09T14:16:33.212Z,100155.66
2019-03-09T14:19:02.084Z,100147.48
2019-03-09T14:21:29.407Z,100131.53
2019-03-09T14:23:56.778Z,100125.80
2019-03-09T14:26:25.536Z,100128.69
2019-03-09T14:28:52.826Z,100110.82
2019-03-09T14:31:20.115Z,100116.89
2019-03-09T14:33:47.436Z,100110.26
2019-03-09T14:36:14.718Z,100085.45
2019-03-09T14:38:42.087Z,100101.07
2019-03-09T14:41:09.369Z,100098.02
2019-03-09T14:43:36.608Z,100087.82
2019-03-09T14:46:03.908Z,100102.13
2019-03-09T14:48:31.227Z,100102.13
2019-03-09T14:50:58.490Z,100111.39
2019-03-09T14:53:25.745Z,100171.67
2019-03-09T14:55:53.026Z,100139.42
2019-03-09T14:58:20.564Z,100162.66
2019-03-09T15:00:47.865Z,100177.61
2019-03-09T15:03:15.117Z,100169.31
2019-03-09T15:05:42.383Z,100150.42
2019-03-09T15:08:09.941Z,100137.89
2019-03-09T15:10:37.228Z,100145.61
2019-03-09T15:13:04.482Z,100114.16
2019-03-09T15:15:31.788Z,100145.53
2019-03-09T15:17:59.136Z,100175.27
2019-03-09T15:20:26.371Z,100199.50
2019-03-09T15:22:53.619Z,100213.42
2019-03-09T15:25:20.924Z,100244.15
2019-03-09T15:27:48.198Z,100233.09
2019-03-09T15:30:15.656Z,100267.40
2019-03-09T15:32:42.971Z,100293.85
2019-03-09T15:35:10.304Z,100309.78
2019-03-09T15:37:37.589Z,100322.53
2019-03-09T15:40:05.013Z,100363.87
2019-03-09T15:42:32.313Z,100383.76
2019-03-09T15:44:59.616Z,100389.22
2019-03-09T15:47:26.871Z,100406.64
2019-03-09T15:49:54.126Z,100414.78
2019-03-09T15:52:21.586Z,100434.89
2019-03-09T15:54:48.868Z,100432.78
2019-03-09T15:57:16.119Z,100464.36
2019-03-09T15:59:43.424Z,100469.12
2019-03-09T16:02:11.011Z,100494.95
2019-03-09T16:04:38.252Z,100488.59
2019-03-09T16:07:06.640Z,100489.90
2019-03-09T16:09:34.197Z,100522.48
2019-03-09T16:12:01.465Z,100524.34
2019-03-09T16:14:28.722Z,100534.66
2019-03-09T16:16:55.960Z,100555.56
2019-03-09T16:19:23.445Z,100550.38
2019-03-09T16:21:50.725Z,100557.76
2019-03-09T16:24:18.011Z,100582.45
2019-03-09T16:26:45.422Z,100579.84
2019-03-09T16:29:12.666Z,100592.63
2019-03-09T16:31:41.993Z,100609.70
2019-03-09T16:34:09.251Z,100614.09
2019-03-09T16:36:36.526Z,100623.11
2019-03-09T16:39:07.872Z,100639.59
2019-03-09T16:41:37.860Z,100641.55
2019-03-09T16:44:05.215Z,100646.86
2019-03-09T16:46:32.476Z,100648.08
2019-03-09T16:48:59.756Z,100672.71
2019-03-09T16:51:26.979Z,100679.53
2019-03-09T16:53:54.233Z,100687.09
2019-03-09T16:56:21.478Z,100690.20
2019-03-09T16:58:48.736Z,100685.73
2019-03-09T17:01:15.974Z,100705.58
2019-03-09T17:03:43.286Z,100704.21
2019-03-09T17:06:10.555Z,100706.63
2019-03-09T17:08:37.818Z,100708.33
2019-03-09T17:11:05.085Z,100722.69
2019-03-09T17:13:32.399Z,100720.91
2019-03-09T17:15:59.680Z,100727.00
2019-03-09T17:18:26.959Z,100720.73
2019-03-09T17:20:56.682Z,100730.50
2019-03-09T17:23:23.618Z,100740.65
2019-03-09T17:25:50.883Z,100749.77
2019-03-09T17:28:18.212Z,100746.19
2019-03-09T17:30:45.447Z,100756.03
2019-03-09T17:33:12.673Z,100763.45
2019-03-09T17:35:41.299Z,100776.83
2019-03-09T17:38:08.581Z,100785.23
2019-03-09T17:40:36.894Z,100788.20
2019-03-09T17:43:04.238Z,100791.30
2019-03-09T17:45:32.013Z,100797.30
2019-03-09T17:47:59.308Z,100817.70
2019-03-09T17:50:26.675Z,100829.55
2019-03-09T17:52:53.918Z,100821.28
2019-03-09T17:55:21.312Z,100825.56
2019-03-09T17:57:48.525Z,100832.08
2019-03-09T18:00:18.219Z,100845.55
2019-03-09T18:02:45.484Z,100845.77
2019-03-09T18:05:12.904Z,100847.80
2019-03-09T18:07:40.223Z,100853.53
2019-03-09T18:10:14.006Z,100862.41
2019-03-09T18:12:41.263Z,100866.86
2019-03-09T18:15:11.373Z,100870.61
2019-03-09T18:17:38.653Z,100868.86
2019-03-09T18:20:06.303Z,100881.19
2019-03-09T18:22:33.669Z,100885.91
2019-03-09T18:25:00.951Z,100885.91
2019-03-09T18:27:28.564Z,100884.22
2019-03-09T18:29:56.873Z,100884.80
2019-03-09T18:32:24.277Z,100884.86
2019-03-09T18:34:51.535Z,100876.88
2019-03-09T18:37:18.776Z,100884.39
2019-03-09T18:39:46.074Z,100892.27
2019-03-09T18:42:13.307Z,100876.16
2019-03-09T18:44:40.583Z,100883.67
2019-03-09T18:47:07.818Z,100889.66
2019-03-09T18:49:37.586Z,100895.11
2019-03-09T18:52:04.818Z,100895.27
2019-03-09T18:54:32.084Z,100900.23
2019-03-09T18:56:59.379Z,100909.41
2019-03-09T18:59:26.615Z,100911.87
2019-03-09T19:01:53.852Z,100911.31
2019-03-09T19:04:21.144Z,100906.98
2019-03-09T19:06:48.389Z,100912.91
2019-03-09T19:09:15.667Z,100913.48
2019-03-09T19:11:42.918Z,100919.38
2019-03-09T19:14:10.204Z,100926.20
2019-03-09T19:16:37.515Z,100930.02
2019-03-09T19:19:04.772Z,100926.56
2019-03-09T19:21:32.036Z,100930.07
2019-03-09T19:23:59.401Z,100933.00
2019-03-09T19:26:26.695Z,100941.87
2019-03-09T19:28:53.944Z,100952.44
2019-03-09T19:31:21.213Z,100950.79
2019-03-09T19:33:48.637Z,100958.86
2019-03-09T19:36:15.870Z,100963.93
2019-03-09T19:38:43.193Z,100963.31
2019-03-09T19:41:10.456Z,100956.05
2019-03-09T19:43:37.702Z,100965.77
2019-03-09T19:46:04.984Z,100960.11
2019-03-09T19:48:32.239Z,100965.77
2019-03-09T19:50:59.502Z,100974.91
2019-03-09T19:53:26.751Z,100978.25
2019-03-09T19:55:53.987Z,100984.23
2019-03-09T19:58:21.200Z,100982.00
2019-03-09T20:00:48.519Z,100975.20
2019-03-09T20:03:15.762Z,100975.68
2019-03-09T20:05:43.043Z,100976.56
2019-03-09T20:08:10.322Z,100964.80
2019-03-09T20:10:37.630Z,100969.55
2019-03-09T20:13:07.250Z,100973.00
2019-03-09T20:15:34.768Z,100971.89
2019-03-09T20:18:02.096Z,100977.55
2019-03-09T20:20:29.388Z,100975.81
2019-03-09T20:22:56.629Z,100970.97
2019-03-09T20:25:24.115Z,100971.53
2019-03-09T20:27:51.373Z,100968.30
2019-03-09T20:30:18.652Z,100968.30
2019-03-09T20:32:47.296Z,100965.48
2019-03-09T20:35:14.623Z,100972.66
2019-03-09T20:37:41.936Z,100976.94
2019-03-09T20:40:09.459Z,100971.28
2019-03-09T20:42:37.285Z,100967.69
2019-03-09T20:45:06.956Z,100960.51
2019-03-09T20:47:34.407Z,100972.53
2019-03-09T20:50:01.676Z,100973.62
2019-03-09T20:52:29.002Z,100978.23
2019-03-09T20:54:56.320Z,100978.08
2019-03-09T20:57:23.552Z,100980.92
2019-03-09T20:59:51.385Z,100984.29
2019-03-09T21:05:57.294Z,100988.47
2019-03-09T21:08:24.524Z,101002.84
2019-03-09T21:10:51.782Z,100994.90
2019-03-09T21:13:19.087Z,100994.90
2019-03-09T21:15:46.303Z,101004.73
2019-03-09T21:18:13.549Z,101004.89
2019-03-09T21:20:40.852Z,100993.67
2019-03-09T21:23:08.097Z,101002.64
2019-03-09T21:25:35.463Z,100989.48
2019-03-09T21:28:02.700Z,100994.31
2019-03-09T21:30:29.941Z,100996.28
2019-03-09T21:32:57.250Z,100999.27
2019-03-09T21:35:24.502Z,101002.45
2019-03-09T21:37:51.759Z,101003.09
2019-03-09T21:40:19.043Z,101007.88
2019-03-09T21:42:59.362Z,101005.73
2019-03-09T21:45:26.614Z,101006.05
2019-03-09T21:47:53.884Z,101008.38
2019-03-09T21:50:21.210Z,101009.27
2019-03-09T21:52:48.503Z,101015.34
2019-03-09T21:55:15.756Z,101015.34
2019-03-09T21:57:43.079Z,101019.02
2019-03-09T22:00:11.608Z,101020.58
2019-03-09T22:02:38.877Z,101029.05
2019-03-09T22:05:08.195Z,101023.25
2019-03-09T22:07:35.446Z,101027.63
2019-03-09T22:10:02.776Z,101028.77
2019-03-09T22:12:30.073Z,101025.89
2019-03-09T22:14:57.322Z,101031.69
2019-03-09T22:17:24.593Z,101053.28
2019-03-09T22:19:51.866Z,101044.43
2019-03-09T22:22:19.338Z,101043.17
2019-03-09T22:24:46.601Z,101048.05
2019-03-09T22:27:13.872Z,101044.92
2019-03-09T22:29:41.110Z,101041.86
2019-03-09T22:32:08.696Z,101041.32
2019-03-09T22:34:35.936Z,101040.47
2019-03-09T22:37:03.212Z,101048.80
2019-03-09T22:39:30.477Z,101044.12
2019-03-09T22:41:57.779Z,101046.99
2019-03-09T22:44:25.092Z,101035.89
2019-03-09T22:46:52.616Z,101035.89
2019-03-09T22:49:19.859Z,101039.63
2019-03-09T22:51:47.132Z,101048.84
2019-03-09T22:54:14.394Z,101052.91
2019-03-09T22:56:41.648Z,101056.78
2019-03-09T22:59:08.920Z,101058.71
2019-03-09T23:01:36.253Z,101059.88
2019-03-09T23:04:03.510Z,101047.07
2019-03-09T23:06:30.735Z,101046.87
2019-03-09T23:08:58.006Z,101043.09
2019-03-09T23:11:25.252Z,101046.48
2019-03-09T23:13:52.560Z,101047.06
2019-03-09T23:16:19.819Z,101041.67
2019-03-09T23:18:47.113Z,101041.67
2019-03-09T23:21:14.357Z,101035.17
2019-03-09T23:23:41.603Z,101038.19
2019-03-09T23:26:08.886Z,101032.11
2019-03-09T23:28:48.556Z,101031.97
2019-03-09T23:31:15.821Z,101037.66
2019-03-09T23:33:43.097Z,101035.14
2019-03-09T23:36:10.331Z,101020.05
2019-03-09T23:38:37.773Z,101029.27
2019-03-09T23:41:05.160Z,101026.48
2019-03-09T23:43:32.469Z,101027.05
2019-03-09T23:45:59.782Z,101032.95
2019-03-09T23:48:27.059Z,101030.47
2019-03-09T23:50:54.345Z,101023.78
2019-03-09T23:53:21.618Z,101016.78
2019-03-09T23:55:48.883Z,101006.30
2019-03-09T23:58:16.163Z,101003.20
